Time;durP1;ratioP1;P1;durP2;ratioP2;P2;SDS_P1;SDS_P2;PMS_P1;PMS_P2;Temp;Humidity;BMP_temperature;BMP_pressure;BME280_temperature;BME280_humidity;BME280_pressure;Samples;Min_cycle;Max_cycle;Signal;HPM_P1;HPM_P2
2022/08/07 00:01:11;;;;;;;13.63;11.40;;;21.50;41.50;;;;;;4992832;28;20641;-69
2022/08/07 00:03:37;;;;;;;15.97;11.30;;;21.30;42.90;;;;;;4992819;28;20496;-69
2022/08/07 00:06:03;;;;;;;13.17;11.20;;;21.40;42.10;;;;;;4991609;28;20780;-69
2022/08/07 00:08:29;;;;;;;12.93;11.53;;;21.20;43.30;;;;;;4990779;28;20188;-71
2022/08/07 00:10:55;;;;;;;16.37;12.37;;;21.20;43.50;;;;;;4991827;28;21013;-69
2022/08/07 00:13:21;;;;;;;14.90;11.43;;;21.10;45.00;;;;;;4992853;28;20207;-69
2022/08/07 00:15:48;;;;;;;14.37;10.80;;;21.10;42.70;;;;;;4992906;28;20177;-69
2022/08/07 00:18:16;;;;;;;13.07;10.80;;;21.10;43.70;;;;;;4988882;28;20445;-69
2022/08/07 00:20:42;;;;;;;18.63;11.50;;;21.10;44.60;;;;;;4993241;28;20416;-69
2022/08/07 00:23:07;;;;;;;15.33;11.60;;;21.10;43.60;;;;;;4991275;28;20970;-70
2022/08/07 00:25:34;;;;;;;15.80;11.00;;;21.00;43.20;;;;;;4992391;28;20199;-69
2022/08/07 00:28:00;;;;;;;15.40;11.83;;;20.90;44.00;;;;;;4991449;28;20560;-70
2022/08/07 00:30:26;;;;;;;13.87;10.57;;;20.80;45.10;;;;;;4992085;28;20453;-70
2022/08/07 00:32:52;;;;;;;17.07;12.40;;;20.90;44.90;;;;;;4990959;28;20229;-69
2022/08/07 00:35:18;;;;;;;17.60;11.97;;;20.90;45.70;;;;;;4991020;28;20586;-69
2022/08/07 00:37:44;;;;;;;16.30;12.47;;;20.80;45.20;;;;;;4991038;28;20441;-69
2022/08/07 00:40:11;;;;;;;15.10;12.60;;;20.80;45.00;;;;;;4980536;28;20490;-69
2022/08/07 00:42:37;;;;;;;15.10;12.60;;;20.80;45.40;;;;;;4990758;28;20451;-69
2022/08/07 00:45:04;;;;;;;18.73;13.13;;;20.90;44.70;;;;;;4992073;28;20438;-69
2022/08/07 00:47:30;;;;;;;18.20;12.77;;;21.10;44.40;;;;;;4973684;28;21013;-69
2022/08/07 00:49:55;;;;;;;18.77;13.37;;;21.00;43.60;;;;;;4991861;28;20582;-69
2022/08/07 00:52:21;;;;;;;19.90;13.40;;;21.10;44.50;;;;;;4991026;28;20503;-69
2022/08/07 00:54:48;;;;;;;20.83;13.40;;;21.00;43.50;;;;;;4991728;28;20209;-69
2022/08/07 00:57:15;;;;;;;17.67;14.03;;;21.00;43.80;;;;;;4991978;28;20268;-69
2022/08/07 00:59:41;;;;;;;27.47;13.87;;;20.90;43.90;;;;;;4990743;28;20544;-69
2022/08/07 01:02:08;;;;;;;19.43;14.07;;;20.80;44.80;;;;;;4991084;28;20515;-69
2022/08/07 01:04:34;;;;;;;17.53;13.57;;;20.70;45.00;;;;;;4991737;28;20231;-69
2022/08/07 01:07:00;;;;;;;15.70;12.60;;;20.80;45.20;;;;;;4988786;28;20454;-69
2022/08/07 01:09:26;;;;;;;17.67;14.30;;;20.50;45.00;;;;;;4987715;28;20464;-69
2022/08/07 01:11:53;;;;;;;19.10;12.83;;;20.50;44.50;;;;;;4991478;28;20451;-69
2022/08/07 01:14:20;;;;;;;20.50;13.40;;;20.70;45.10;;;;;;4991272;28;20542;-70
2022/08/07 01:16:46;;;;;;;16.80;13.10;;;20.80;43.50;;;;;;4984061;28;20444;-69
2022/08/07 01:19:12;;;;;;;18.03;14.53;;;20.80;44.10;;;;;;4991497;28;20425;-70
2022/08/07 01:21:38;;;;;;;18.20;14.00;;;20.60;44.10;;;;;;4991090;28;20911;-69
2022/08/07 01:24:04;;;;;;;23.07;13.87;;;20.80;43.30;;;;;;4990458;28;20452;-69
2022/08/07 01:26:30;;;;;;;19.07;13.30;;;20.80;44.80;;;;;;4990891;28;20524;-69
2022/08/07 01:28:56;;;;;;;17.07;13.10;;;20.70;45.60;;;;;;4990367;28;20539;-69
2022/08/07 01:31:30;;;;;;;17.20;14.27;;;20.50;45.90;;;;;;4989448;28;20435;-69
2022/08/07 01:33:57;;;;;;;17.10;13.30;;;20.50;46.20;;;;;;4989142;28;20515;-69
2022/08/07 01:36:25;;;;;;;26.33;14.37;;;20.50;45.50;;;;;;4990247;28;20428;-70
2022/08/07 01:38:51;;;;;;;18.93;13.93;;;20.50;45.30;;;;;;4990613;28;20436;-70
2022/08/07 01:41:19;;;;;;;20.93;14.80;;;20.50;44.70;;;;;;4990909;28;20428;-69
2022/08/07 01:43:45;;;;;;;16.00;13.73;;;20.50;45.50;;;;;;4990527;28;20812;-70
2022/08/07 01:46:12;;;;;;;18.93;14.43;;;20.50;44.90;;;;;;4989502;28;20444;-69
2022/08/07 01:48:41;;;;;;;18.20;13.53;;;20.50;46.10;;;;;;4992739;28;20799;-70
2022/08/07 01:51:10;;;;;;;20.57;14.00;;;20.40;45.40;;;;;;4993381;28;20482;-69
2022/08/07 01:53:38;;;;;;;25.63;13.80;;;20.40;45.50;;;;;;4992610;28;20464;-69
2022/08/07 01:56:25;;;;;;;18.70;13.97;;;20.40;46.20;;;;;;4993939;28;20467;-70
2022/08/07 01:59:16;;;;;;;17.60;13.50;;;20.20;47.00;;;;;;4993252;28;20974;-70
2022/08/07 02:01:47;;;;;;;16.07;12.80;;;20.30;46.20;;;;;;4985145;28;20474;-69
2022/08/07 02:04:26;;;;;;;18.20;12.87;;;20.30;45.80;;;;;;4990438;28;20465;-69
2022/08/07 02:06:55;;;;;;;16.50;12.03;;;20.30;45.40;;;;;;4993890;28;20423;-69
2022/08/07 02:09:22;;;;;;;15.13;11.90;;;20.30;45.90;;;;;;4994032;28;20822;-70
2022/08/07 02:11:50;;;;;;;14.77;12.53;;;20.30;45.30;;;;;;4993170;28;20440;-70
2022/08/07 02:14:18;;;;;;;17.10;13.50;;;20.20;46.10;;;;;;4990957;28;20457;-69
2022/08/07 02:16:47;;;;;;;15.17;12.10;;;20.20;45.70;;;;;;4993044;28;21114;-69
2022/08/07 02:19:13;;;;;;;16.93;12.60;;;20.10;45.80;;;;;;4992838;28;20446;-70
2022/08/07 02:21:40;;;;;;;18.50;12.60;;;19.80;45.90;;;;;;4993854;28;20419;-70
2022/08/07 02:24:08;;;;;;;16.60;13.03;;;19.70;46.50;;;;;;4992287;28;20488;-69
2022/08/07 02:26:37;;;;;;;19.80;14.03;;;19.70;47.40;;;;;;4993306;28;20463;-70
2022/08/07 02:29:07;;;;;;;18.90;15.13;;;19.70;47.00;;;;;;4993709;28;20464;-70
2022/08/07 02:31:34;;;;;;;17.47;14.90;;;20.00;46.80;;;;;;4993579;28;20428;-72
2022/08/07 02:34:02;;;;;;;16.93;14.50;;;20.00;46.10;;;;;;4951904;28;1095844;-69
2022/08/07 02:36:28;;;;;;;20.80;15.60;;;19.90;45.60;;;;;;4988758;28;20184;-69
2022/08/07 02:38:56;;;;;;;19.70;15.27;;;19.80;46.80;;;;;;4994328;28;20494;-69
2022/08/07 02:41:23;;;;;;;22.07;14.80;;;19.80;48.30;;;;;;4994539;28;20439;-69
2022/08/07 02:43:51;;;;;;;30.20;15.40;;;19.70;47.30;;;;;;4994369;28;20982;-69
2022/08/07 02:46:19;;;;;;;15.80;11.80;;;19.90;47.20;;;;;;4993699;28;20863;-69
2022/08/07 02:48:45;;;;;;;18.97;15.10;;;19.90;46.30;;;;;;4994405;28;20435;-69
2022/08/07 02:51:15;;;;;;;18.80;14.60;;;19.80;46.00;;;;;;4994554;28;20465;-69
2022/08/07 02:53:42;;;;;;;20.23;15.30;;;19.90;46.00;;;;;;4994268;28;20442;-71
2022/08/07 02:56:12;;;;;;;19.83;14.67;;;20.00;45.70;;;;;;4986735;28;20446;-69
2022/08/07 02:58:41;;;;;;;18.40;14.20;;;20.20;45.00;;;;;;4993761;28;20471;-69
2022/08/07 03:01:08;;;;;;;19.60;14.97;;;20.20;43.90;;;;;;4993739;28;20477;-69
2022/08/07 03:03:35;;;;;;;17.93;14.13;;;20.30;43.80;;;;;;4992984;28;20466;-70
2022/08/07 03:06:03;;;;;;;21.13;15.00;;;20.50;42.70;;;;;;4991616;28;20596;-69
2022/08/07 03:08:29;;;;;;;19.93;14.60;;;20.20;44.10;;;;;;4993868;28;20446;-69
2022/08/07 03:10:56;;;;;;;20.00;14.70;;;20.10;45.00;;;;;;4993576;28;20473;-69
2022/08/07 03:13:22;;;;;;;22.00;14.93;;;19.80;46.60;;;;;;4976331;28;20463;-70
2022/08/07 03:15:49;;;;;;;23.00;14.33;;;19.60;46.90;;;;;;4993014;28;20437;-70
2022/08/07 03:18:16;;;;;;;21.53;14.67;;;19.80;45.60;;;;;;4993445;28;20194;-69
2022/08/07 03:20:42;;;;;;;24.20;15.50;;;19.80;45.80;;;;;;4993678;28;20425;-70
2022/08/07 03:23:09;;;;;;;18.80;14.60;;;19.90;45.50;;;;;;4993544;28;20953;-69
2022/08/07 03:25:38;;;;;;;18.13;14.50;;;19.50;48.10;;;;;;4993060;28;20453;-69
2022/08/07 03:28:04;;;;;;;20.97;14.80;;;19.50;46.60;;;;;;4991338;28;20479;-69
2022/08/07 03:30:31;;;;;;;20.27;14.63;;;19.60;47.30;;;;;;4994017;28;20466;-70
2022/08/07 03:33:00;;;;;;;20.27;13.50;;;19.50;48.00;;;;;;4992584;28;21415;-70
2022/08/07 03:35:28;;;;;;;16.47;13.30;;;19.50;46.70;;;;;;4993981;28;20422;-69
2022/08/07 03:38:07;;;;;;;21.10;14.30;;;19.70;46.50;;;;;;4992312;28;20466;-70
2022/08/07 03:40:33;;;;;;;20.27;14.10;;;19.80;45.70;;;;;;4988349;28;20495;-70
2022/08/07 03:43:00;;;;;;;19.30;14.17;;;19.60;45.60;;;;;;4993063;28;20445;-69
2022/08/07 03:45:27;;;;;;;19.50;14.10;;;19.60;46.80;;;;;;4975212;28;20448;-69
2022/08/07 03:47:55;;;;;;;18.17;13.73;;;19.30;47.10;;;;;;4992702;28;20438;-69
2022/08/07 03:50:23;;;;;;;17.33;13.30;;;19.50;47.20;;;;;;4987967;28;20502;-70
2022/08/07 03:52:51;;;;;;;18.10;13.87;;;19.50;45.80;;;;;;4992175;28;20486;-69
2022/08/07 03:55:17;;;;;;;21.77;13.17;;;19.40;45.60;;;;;;4993234;28;20836;-70
2022/08/07 03:57:45;;;;;;;16.33;13.03;;;19.50;46.90;;;;;;4991712;28;20468;-71
2022/08/07 04:00:11;;;;;;;13.70;10.17;;;19.40;46.20;;;;;;4992514;28;20448;-69
2022/08/07 04:02:37;;;;;;;16.20;10.20;;;19.30;44.00;;;;;;4992549;28;20451;-70
2022/08/07 04:05:04;;;;;;;14.93;9.50;;;19.40;43.20;;;;;;4992370;28;20441;-70
2022/08/07 04:07:31;;;;;;;11.50;9.50;;;19.50;42.90;;;;;;4993210;28;20511;-70
2022/08/07 04:09:57;;;;;;;15.07;9.90;;;19.50;41.20;;;;;;4990652;28;20471;-69
2022/08/07 04:12:23;;;;;;;13.00;9.40;;;19.40;41.30;;;;;;4992443;28;20440;-70
2022/08/07 04:14:49;;;;;;;15.93;9.67;;;19.40;41.10;;;;;;4993104;28;20414;-69
2022/08/07 04:17:16;;;;;;;16.00;11.30;;;19.20;42.30;;;;;;4993257;28;20785;-69
2022/08/07 04:19:42;;;;;;;14.80;12.10;;;19.30;42.80;;;;;;4992990;28;20835;-69
2022/08/07 04:22:09;;;;;;;16.30;11.53;;;19.30;43.60;;;;;;4990847;28;20580;-69
2022/08/07 04:24:36;;;;;;;15.87;12.30;;;19.30;44.70;;;;;;4992841;28;20249;-69
2022/08/07 04:27:03;;;;;;;15.03;11.63;;;18.50;47.70;;;;;;4993137;28;20516;-70
2022/08/07 04:29:29;;;;;;;16.60;11.70;;;18.60;48.30;;;;;;4991914;28;20858;-69
2022/08/07 04:31:57;;;;;;;14.60;12.17;;;18.70;47.80;;;;;;4990713;28;20441;-69
2022/08/07 04:34:24;;;;;;;17.27;11.30;;;19.00;46.60;;;;;;4992394;28;20596;-69
2022/08/07 04:36:49;;;;;;;16.20;10.97;;;18.90;44.00;;;;;;4992854;28;20441;-69
2022/08/07 04:39:15;;;;;;;15.23;11.80;;;18.90;44.40;;;;;;4992951;28;20891;-69
2022/08/07 04:41:41;;;;;;;13.53;11.00;;;19.00;44.30;;;;;;4991374;28;20309;-69
2022/08/07 04:44:08;;;;;;;15.80;12.30;;;19.20;42.20;;;;;;4991871;28;20443;-70
2022/08/07 04:47:00;;;;;;;15.03;10.43;;;19.10;44.80;;;;;;4992807;28;20198;-69
2022/08/07 04:49:42;;;;;;;15.03;10.43;;;19.20;43.50;;;;;;4984675;28;20466;-70
2022/08/07 04:52:20;;;;;;;12.63;9.13;;;19.10;42.60;;;;;;4992192;28;20787;-69
2022/08/07 04:55:00;;;;;;;22.37;9.00;;;19.00;40.80;;;;;;4991812;28;20463;-70
2022/08/07 04:57:38;;;;;;;11.30;8.50;;;18.90;43.60;;;;;;4988103;28;20552;-69
2022/08/07 05:00:10;;;;;;;10.23;7.70;;;18.40;41.90;;;;;;4992294;28;20513;-70
2022/08/07 05:03:14;;;;;;;10.80;7.80;;;18.70;39.40;;;;;;4990355;28;20472;-69
2022/08/07 05:05:44;;;;;;;9.30;6.80;;;18.90;40.60;;;;;;4985700;28;20430;-71
2022/08/07 05:08:22;;;;;;;8.30;6.70;;;18.70;38.60;;;;;;4989558;28;20513;-69
2022/08/07 05:10:55;;;;;;;10.40;7.27;;;18.50;38.70;;;;;;4991598;28;20465;-69
2022/08/07 05:13:29;;;;;;;10.50;8.10;;;18.60;39.10;;;;;;4991181;28;20461;-69
2022/08/07 05:15:58;;;;;;;13.40;8.23;;;18.70;38.30;;;;;;4990762;28;20501;-69
2022/08/07 05:18:28;;;;;;;13.50;7.80;;;18.50;37.90;;;;;;4991485;28;20495;-69
2022/08/07 05:20:59;;;;;;;10.90;7.33;;;19.00;37.80;;;;;;4991291;28;20933;-69
2022/08/07 05:23:33;;;;;;;9.90;6.87;;;19.10;36.10;;;;;;4990089;28;20463;-69
2022/08/07 05:26:01;;;;;;;11.97;6.57;;;19.10;37.00;;;;;;4986806;28;20444;-69
2022/08/07 05:28:28;;;;;;;8.50;6.37;;;19.20;35.80;;;;;;4984181;28;20430;-69
2022/08/07 05:30:55;;;;;;;12.60;7.17;;;19.40;36.40;;;;;;4991186;28;20467;-69
2022/08/07 05:33:22;;;;;;;10.03;7.80;;;19.60;37.30;;;;;;4990241;28;20470;-70
2022/08/07 05:35:52;;;;;;;10.07;6.70;;;19.80;37.40;;;;;;4990196;28;20789;-69
2022/08/07 05:38:21;;;;;;;13.07;7.30;;;19.80;36.50;;;;;;4991224;28;20527;-69
2022/08/07 05:40:47;;;;;;;9.97;7.30;;;19.30;36.50;;;;;;4991452;28;20925;-69
2022/08/07 05:43:13;;;;;;;8.20;6.60;;;19.40;37.00;;;;;;4991619;28;20955;-69
2022/08/07 05:45:41;;;;;;;11.03;6.20;;;18.70;36.30;;;;;;4990710;28;20498;-70
2022/08/07 05:48:07;;;;;;;8.33;6.30;;;18.20;37.70;;;;;;4991390;28;20446;-69
2022/08/07 05:50:33;;;;;;;7.50;6.67;;;18.20;38.50;;;;;;4991421;28;20470;-69
2022/08/07 05:53:00;;;;;;;11.20;6.57;;;17.70;38.40;;;;;;4990720;28;20286;-69
2022/08/07 05:55:26;;;;;;;7.57;6.10;;;17.30;40.30;;;;;;4991806;28;20446;-71
2022/08/07 05:57:54;;;;;;;11.73;5.83;;;18.20;41.10;;;;;;4990494;28;20450;-71
2022/08/07 06:00:20;;;;;;;9.10;5.80;;;18.10;37.20;;;;;;4991428;28;20504;-69
2022/08/07 06:02:49;;;;;;;8.73;5.33;;;17.70;38.30;;;;;;4989730;28;20471;-70
2022/08/07 06:05:16;;;;;;;12.87;5.97;;;17.90;39.00;;;;;;4988486;28;20935;-70
2022/08/07 06:07:42;;;;;;;9.47;6.10;;;18.50;36.10;;;;;;4979964;28;20992;-70
2022/08/07 06:10:09;;;;;;;8.60;6.47;;;18.30;39.30;;;;;;4990184;28;20461;-70
2022/08/07 06:12:35;;;;;;;11.53;7.33;;;18.90;36.40;;;;;;4991065;28;21013;-70
2022/08/07 06:15:01;;;;;;;9.27;6.13;;;19.00;36.50;;;;;;4991718;28;20485;-70
2022/08/07 06:17:27;;;;;;;8.00;5.90;;;19.30;36.60;;;;;;4990825;28;20182;-69
2022/08/07 06:19:53;;;;;;;9.67;6.30;;;19.40;35.00;;;;;;4991328;28;20192;-70
2022/08/07 06:22:19;;;;;;;9.57;5.97;;;19.80;34.70;;;;;;4990353;28;20627;-71
2022/08/07 06:24:45;;;;;;;8.43;6.50;;;19.90;35.60;;;;;;4991743;28;20455;-70
2022/08/07 06:27:20;;;;;;;9.57;6.40;;;20.10;34.40;;;;;;4989147;28;20927;-70
2022/08/07 06:29:45;;;;;;;8.93;6.03;;;19.90;34.50;;;;;;4990250;28;20473;-69
2022/08/07 06:32:11;;;;;;;8.00;6.13;;;20.10;34.30;;;;;;4991189;28;20420;-69
2022/08/07 06:34:36;;;;;;;8.87;6.40;;;19.80;33.70;;;;;;4992555;28;20219;-71
2022/08/07 06:37:02;;;;;;;9.20;6.83;;;19.60;33.80;;;;;;4994709;28;20658;-69
2022/08/07 06:39:28;;;;;;;9.63;7.00;;;19.80;36.20;;;;;;4992792;28;20192;-69
2022/08/07 06:42:03;;;;;;;8.20;6.43;;;20.20;36.00;;;;;;4992815;28;20196;-68
2022/08/07 06:44:30;;;;;;;14.20;6.27;;;19.60;34.70;;;;;;4987188;28;20261;-69
2022/08/07 06:46:56;;;;;;;11.97;7.00;;;19.10;37.20;;;;;;4994946;28;20415;-69
2022/08/07 06:49:22;;;;;;;8.60;7.03;;;19.50;37.90;;;;;;4991815;28;20459;-69
2022/08/07 06:51:48;;;;;;;21.20;7.00;;;19.90;36.90;;;;;;4989143;28;20680;-69
2022/08/07 06:54:17;;;;;;;8.93;7.40;;;19.60;37.00;;;;;;4993367;28;20684;-69
2022/08/07 06:56:49;;;;;;;8.53;6.87;;;19.40;36.90;;;;;;4994848;28;20420;-68
2022/08/07 06:59:21;;;;;;;10.30;7.37;;;18.90;39.40;;;;;;4994663;28;20985;-70
2022/08/07 07:01:48;;;;;;;8.87;6.97;;;19.60;38.90;;;;;;4991449;28;20444;-72
2022/08/07 07:04:14;;;;;;;11.93;6.97;;;20.20;36.60;;;;;;4983951;28;20441;-70
2022/08/07 07:06:40;;;;;;;11.70;7.80;;;19.90;37.00;;;;;;4994595;28;20411;-71
2022/08/07 07:09:46;;;;;;;9.60;7.63;;;19.60;37.60;;;;;;4990454;28;20440;-71
2022/08/07 07:12:11;;;;;;;11.40;7.40;;;19.40;39.10;;;;;;4929302;29;20461;-72
2022/08/07 07:14:51;;;;;;;9.50;7.73;;;19.60;38.90;;;;;;4935728;29;20458;-72
2022/08/07 07:17:27;;;;;;;9.17;7.10;;;19.50;38.60;;;;;;4941796;29;20264;-72
2022/08/07 07:19:58;;;;;;;10.07;7.20;;;19.70;39.10;;;;;;4945144;29;20438;-73
2022/08/07 07:22:25;;;;;;;8.80;6.90;;;20.10;39.00;;;;;;4950858;29;20420;-70
2022/08/07 07:24:52;;;;;;;8.93;6.87;;;20.80;38.30;;;;;;4926317;29;20431;-71
2022/08/07 07:27:22;;;;;;;8.90;7.20;;;21.30;37.60;;;;;;4953157;29;20419;-70
2022/08/07 07:29:53;;;;;;;7.73;7.00;;;21.40;34.60;;;;;;4952816;29;20477;-73
2022/08/07 07:32:22;;;;;;;10.53;7.70;;;20.60;36.50;;;;;;4937403;29;20438;-72
2022/08/07 07:34:52;;;;;;;14.70;7.07;;;20.60;37.50;;;;;;4932338;29;20436;-70
2022/08/07 07:37:19;;;;;;;10.67;7.97;;;20.60;37.50;;;;;;4933304;29;21228;-73
2022/08/07 07:39:47;;;;;;;9.60;7.13;;;20.60;38.10;;;;;;4933972;29;20523;-73
2022/08/07 07:42:14;;;;;;;8.37;7.00;;;21.20;37.60;;;;;;4933088;29;20928;-71
2022/08/07 07:44:43;;;;;;;8.87;7.53;;;21.20;36.60;;;;;;4932540;29;20445;-70
2022/08/07 07:47:10;;;;;;;10.70;6.70;;;21.40;37.30;;;;;;4989553;28;20423;-71
2022/08/07 07:49:37;;;;;;;10.67;6.80;;;21.80;36.70;;;;;;4993490;28;20542;-71
2022/08/07 07:52:04;;;;;;;7.70;6.27;;;21.90;36.30;;;;;;4993018;28;21166;-70
2022/08/07 07:54:31;;;;;;;14.20;8.23;;;22.00;35.20;;;;;;4993494;28;20429;-71
2022/08/07 07:56:58;;;;;;;11.97;6.70;;;22.10;35.30;;;;;;4993154;28;20463;-70
2022/08/07 07:59:26;;;;;;;9.57;6.70;;;22.40;34.20;;;;;;4981470;28;20438;-70
2022/08/07 08:01:53;;;;;;;7.47;6.27;;;22.50;34.70;;;;;;4990007;28;20443;-70
2022/08/07 08:04:20;;;;;;;8.03;6.40;;;22.60;34.20;;;;;;4988647;28;20513;-69
2022/08/07 08:06:46;;;;;;;8.13;6.17;;;22.80;34.40;;;;;;4988721;28;20949;-69
2022/08/07 08:09:15;;;;;;;7.83;5.90;;;22.70;33.20;;;;;;4990961;28;20444;-70
2022/08/07 08:11:43;;;;;;;8.50;6.20;;;22.70;33.60;;;;;;4986283;28;20467;-71
2022/08/07 08:14:09;;;;;;;7.30;5.80;;;22.90;33.90;;;;;;4985952;28;20508;-70
2022/08/07 08:16:38;;;;;;;6.83;5.83;;;22.90;32.70;;;;;;4988937;28;20437;-69
2022/08/07 08:19:10;;;;;;;8.97;5.83;;;22.90;33.80;;;;;;4993075;28;20236;-69
2022/08/07 08:27:13;;;;;;;8.07;5.77;;;23.70;31.60;;;;;;4992739;28;20498;-69
2022/08/07 08:29:48;;;;;;;5.47;5.10;;;23.50;31.00;;;;;;4993066;28;20462;-69
2022/08/07 08:32:19;;;;;;;9.20;5.30;;;23.30;31.30;;;;;;4991658;28;20805;-70
2022/08/07 08:34:47;;;;;;;6.03;5.50;;;23.90;32.10;;;;;;4985902;28;20425;-69
2022/08/07 08:37:14;;;;;;;7.53;5.70;;;23.60;30.80;;;;;;4981871;28;20426;-69
2022/08/07 08:39:43;;;;;;;5.30;5.00;;;23.90;31.40;;;;;;4980673;28;20726;-70
2022/08/07 08:42:56;;;;;;;7.10;4.73;;;24.10;29.90;;;;;;4978784;28;20434;-70
2022/08/07 08:45:32;;;;;;;5.50;5.00;;;24.20;29.00;;;;;;4917268;29;20493;-72
2022/08/07 08:48:16;;;;;;;5.83;4.97;;;24.00;28.80;;;;;;4919595;29;20643;-71
2022/08/07 08:50:55;;;;;;;13.93;4.63;;;24.00;29.90;;;;;;4918143;29;20622;-75
2022/08/07 08:53:45;;;;;;;8.30;4.67;;;24.00;28.90;;;;;;4919490;29;20451;-70
2022/08/07 08:56:15;;;;;;;5.07;4.27;;;24.00;28.50;;;;;;4917626;29;20467;-70
2022/08/07 08:58:49;;;;;;;11.70;3.80;;;24.20;27.90;;;;;;4921146;29;20448;-71
2022/08/07 09:01:32;;;;;;;5.17;4.20;;;24.60;27.90;;;;;;4920757;29;20447;-70
2022/08/07 09:04:22;;;;;;;6.17;3.50;;;24.70;26.90;;;;;;4919126;29;20451;-71
2022/08/07 09:07:07;;;;;;;4.50;3.73;;;24.90;26.50;;;;;;4918946;29;20963;-70
2022/08/07 09:09:53;;;;;;;4.20;3.50;;;24.80;25.50;;;;;;4911891;29;20482;-70
2022/08/07 09:12:38;;;;;;;3.47;3.33;;;25.00;24.70;;;;;;4912503;29;20419;-70
2022/08/07 09:15:36;;;;;;;8.70;3.60;;;25.20;25.80;;;;;;4912756;29;20467;-70
2022/08/07 09:18:20;;;;;;;7.23;3.30;;;24.80;25.10;;;;;;4909858;29;20439;-70
2022/08/07 09:20:55;;;;;;;5.30;3.40;;;25.00;26.20;;;;;;4936848;28;20425;-70
2022/08/07 09:23:52;;;;;;;5.10;3.30;;;25.10;25.00;;;;;;4990355;28;20449;-70
2022/08/07 09:26:44;;;;;;;7.70;3.70;;;25.30;24.80;;;;;;4992113;28;20554;-71
2022/08/07 09:29:31;;;;;;;6.00;3.10;;;25.10;24.70;;;;;;4973028;28;20766;-70
2022/08/07 09:32:23;;;;;;;5.50;3.37;;;25.60;23.90;;;;;;4991647;28;20775;-71
2022/08/07 09:35:04;;;;;;;3.53;3.17;;;25.80;25.00;;;;;;4991539;28;20413;-72
2022/08/07 09:37:55;;;;;;;3.77;3.00;;;25.70;24.90;;;;;;4992011;28;20951;-70
2022/08/07 09:40:46;;;;;;;6.73;3.20;;;25.70;24.20;;;;;;4991981;28;20393;-72
2022/08/07 09:43:32;;;;;;;6.43;3.10;;;25.80;24.70;;;;;;4991758;28;20432;-71
2022/08/07 09:46:03;;;;;;;4.87;2.93;;;26.00;22.50;;;;;;4991451;28;20868;-71
2022/08/07 09:48:59;;;;;;;4.40;3.30;;;26.10;22.10;;;;;;4991832;28;20428;-70
2022/08/07 09:51:40;;;;;;;5.67;3.17;;;26.00;23.70;;;;;;4973760;28;20559;-70
2022/08/07 09:54:11;;;;;;;4.20;3.23;;;26.00;23.00;;;;;;4991035;28;20449;-69
2022/08/07 09:56:43;;;;;;;3.73;2.67;;;25.70;23.20;;;;;;4991884;28;20553;-70
2022/08/07 09:59:27;;;;;;;3.10;2.83;;;25.80;23.20;;;;;;4991828;28;20416;-68
2022/08/07 10:02:29;;;;;;;6.70;3.10;;;26.30;23.00;;;;;;4991104;28;20509;-68
2022/08/07 10:05:24;;;;;;;3.17;3.00;;;26.40;22.50;;;;;;4971941;28;20821;-68
2022/08/07 10:07:59;;;;;;;6.63;3.20;;;26.50;22.00;;;;;;4986673;28;20790;-71
2022/08/07 10:10:56;;;;;;;3.63;2.90;;;26.40;21.60;;;;;;4994770;28;20544;-68
2022/08/07 10:13:58;;;;;;;3.97;3.03;;;26.30;21.50;;;;;;4994849;28;20528;-68
2022/08/07 10:16:39;;;;;;;3.83;2.90;;;26.60;22.50;;;;;;4995333;28;20504;-69
2022/08/07 10:19:28;;;;;;;3.93;3.10;;;26.70;20.80;;;;;;4975812;28;20417;-71
2022/08/07 10:22:18;;;;;;;2.93;2.77;;;26.80;20.90;;;;;;4992507;28;20523;-71
2022/08/07 10:25:00;;;;;;;5.50;3.10;;;26.90;21.20;;;;;;4994914;28;20413;-71
2022/08/07 10:28:02;;;;;;;4.10;3.03;;;27.00;20.40;;;;;;4995483;28;20413;-71
2022/08/07 10:30:31;;;;;;;3.97;3.07;;;27.00;20.70;;;;;;4994778;28;20456;-71
2022/08/07 10:33:28;;;;;;;3.10;2.90;;;27.20;20.60;;;;;;4993677;28;20956;-71
2022/08/07 10:36:12;;;;;;;3.10;2.90;;;27.40;19.50;;;;;;4994393;28;20827;-71
2022/08/07 10:38:48;;;;;;;2.97;2.70;;;27.20;20.00;;;;;;4995234;28;20405;-71
2022/08/07 10:41:47;;;;;;;3.00;2.80;;;27.60;20.90;;;;;;4993140;28;20428;-68
2022/08/07 10:44:30;;;;;;;7.37;3.10;;;27.90;18.60;;;;;;4994809;28;20463;-70
2022/08/07 10:47:17;;;;;;;4.43;3.00;;;27.70;19.90;;;;;;4994455;28;20424;-71
2022/08/07 10:50:23;;;;;;;3.50;2.90;;;27.80;19.10;;;;;;4994585;28;20441;-72
2022/08/07 10:52:57;;;;;;;3.60;2.70;;;27.90;19.70;;;;;;4914687;29;20532;-70
2022/08/07 10:55:30;;;;;;;5.87;2.80;;;28.00;17.50;;;;;;4984596;28;20462;-71
2022/08/07 10:58:12;;;;;;;3.30;2.53;;;27.80;19.60;;;;;;4994403;28;20408;-70
2022/08/07 11:00:59;;;;;;;3.10;2.90;;;27.80;19.00;;;;;;4994537;28;20519;-70
2022/08/07 11:03:40;;;;;;;3.07;2.87;;;28.10;17.90;;;;;;4993629;28;20452;-72
2022/08/07 11:06:24;;;;;;;3.00;2.67;;;27.90;17.10;;;;;;4994560;28;20444;-72
2022/08/07 11:09:00;;;;;;;3.13;2.97;;;27.90;18.70;;;;;;4994577;28;20397;-71
2022/08/07 11:11:53;;;;;;;4.77;2.87;;;28.20;19.00;;;;;;4993835;28;20455;-71
2022/08/07 11:14:32;;;;;;;3.87;2.60;;;28.10;19.30;;;;;;4993755;28;20452;-70
2022/08/07 11:17:26;;;;;;;2.50;2.30;;;28.40;18.20;;;;;;4974831;28;20434;-71
2022/08/07 11:19:57;;;;;;;3.30;2.90;;;28.30;17.30;;;;;;4974754;28;21035;-71
2022/08/07 11:22:28;;;;;;;2.87;2.70;;;28.10;17.50;;;;;;4993348;28;20416;-71
2022/08/07 11:25:26;;;;;;;5.00;2.80;;;27.80;18.70;;;;;;4993425;28;21218;-71
2022/08/07 11:28:27;;;;;;;3.13;2.63;;;28.40;18.80;;;;;;4914897;29;20823;-71
2022/08/07 11:31:17;;;;;;;5.50;2.70;;;28.70;17.30;;;;;;4867176;29;20953;-71
2022/08/07 11:34:02;;;;;;;3.17;2.50;;;29.60;15.60;;;;;;4913865;29;20547;-71
2022/08/07 11:36:52;;;;;;;4.33;2.47;;;31.00;15.60;;;;;;4914472;29;20440;-71
2022/08/07 11:39:39;;;;;;;3.10;2.37;;;31.00;15.40;;;;;;4914754;29;20516;-71
2022/08/07 11:42:29;;;;;;;2.27;2.10;;;31.30;12.20;;;;;;4914192;29;20432;-71
2022/08/07 11:45:21;;;;;;;5.50;2.10;;;32.00;12.50;;;;;;4914124;29;20420;-71
2022/08/07 11:47:55;;;;;;;2.50;2.10;;;32.00;13.30;;;;;;4895467;29;20444;-71
2022/08/07 11:50:21;;;;;;;2.37;2.10;;;33.20;12.50;;;;;;4895543;29;20472;-71
2022/08/07 11:53:24;;;;;;;2.97;2.10;;;33.40;11.20;;;;;;4895067;29;21008;-71
2022/08/07 11:56:20;;;;;;;3.03;2.20;;;33.20;11.10;;;;;;4895688;29;20185;-71
2022/08/07 11:58:56;;;;;;;2.13;2.00;;;33.20;11.30;;;;;;4914161;29;20440;-70
2022/08/07 12:01:44;;;;;;;2.20;2.00;;;34.10;10.60;;;;;;4914088;29;20480;-71
2022/08/07 12:04:35;;;;;;;5.97;2.10;;;34.70;8.90;;;;;;4941470;28;20520;-69
2022/08/07 12:07:11;;;;;;;2.27;1.97;;;34.30;10.00;;;;;;4978078;28;21075;-69
2022/08/07 12:09:47;;;;;;;3.30;2.43;;;34.30;9.90;;;;;;4992593;28;20435;-71
2022/08/07 12:12:41;;;;;;;3.23;2.20;;;34.50;9.30;;;;;;4974580;28;20429;-69
2022/08/07 12:15:52;;;;;;;13.37;2.23;;;34.40;9.70;;;;;;4992747;28;20425;-70
2022/08/07 12:18:18;;;;;;;4.73;2.30;;;34.80;9.50;;;;;;4913467;29;20432;-69
2022/08/07 12:20:50;;;;;;;4.13;2.10;;;34.70;8.10;;;;;;4913408;29;20553;-70
2022/08/07 12:23:33;;;;;;;2.83;2.10;;;34.60;9.40;;;;;;4913399;29;20231;-69
2022/08/07 12:26:09;;;;;;;3.93;2.17;;;35.40;8.30;;;;;;4913753;29;20800;-69
2022/08/07 12:28:59;;;;;;;4.00;2.30;;;35.50;8.70;;;;;;4913648;29;20479;-69
2022/08/07 12:31:48;;;;;;;4.03;2.00;;;35.60;7.60;;;;;;4913502;29;20475;-69
2022/08/07 12:34:17;;;;;;;3.73;2.20;;;36.20;8.00;;;;;;4912907;29;20464;-69
2022/08/07 12:36:44;;;;;;;4.07;2.80;;;36.20;7.40;;;;;;4913470;29;20975;-69
2022/08/07 12:39:12;;;;;;;4.03;2.20;;;36.80;7.10;;;;;;4913301;29;20432;-69
2022/08/07 12:41:39;;;;;;;2.80;2.00;;;36.80;5.90;;;;;;4913360;29;20460;-69
2022/08/07 12:44:09;;;;;;;2.70;2.10;;;36.90;7.40;;;;;;4912865;29;20448;-69
2022/08/07 12:46:47;;;;;;;3.83;2.03;;;36.40;6.80;;;;;;4913255;29;20443;-69
2022/08/07 12:49:33;;;;;;;8.00;2.10;;;36.30;7.80;;;;;;4962347;28;20421;-69
2022/08/07 12:52:12;;;;;;;2.90;2.00;;;35.10;9.30;;;;;;4972728;28;20404;-69
2022/08/07 12:54:40;;;;;;;3.17;2.30;;;35.00;7.60;;;;;;4972903;28;20512;-69
2022/08/07 12:57:08;;;;;;;2.30;2.10;;;34.30;8.10;;;;;;4980852;28;20484;-70
2022/08/07 12:59:35;;;;;;;4.50;2.20;;;33.90;9.50;;;;;;4975000;28;20421;-68
2022/08/07 13:02:03;;;;;;;2.23;2.10;;;32.70;10.60;;;;;;4991204;28;20440;-69
2022/08/07 13:05:20;;;;;;;7.43;2.50;;;32.80;10.00;;;;;;4992061;28;20865;-69
2022/08/07 13:08:01;;;;;;;2.97;2.40;;;33.10;9.90;;;;;;4937384;28;20430;-69
2022/08/07 13:10:33;;;;;;;3.17;2.30;;;32.00;10.40;;;;;;4992340;28;20455;-70
2022/08/07 13:13:27;;;;;;;3.50;2.50;;;31.30;12.20;;;;;;4990580;28;20452;-71
2022/08/07 13:17:01;;;;;;;2.87;2.37;;;31.30;14.90;;;;;;4992179;28;20397;-72